createdAt,value
2019-03-30T00:00:31.630Z,60.11
2019-03-30T00:03:02.005Z,59.80
2019-03-30T00:05:32.383Z,59.99
2019-03-30T00:08:03.701Z,59.59
2019-03-30T00:10:34.068Z,59.01
2019-03-30T00:13:04.904Z,58.40
2019-03-30T00:15:35.269Z,58.64
2019-03-30T00:18:05.664Z,58.90
2019-03-30T00:20:36.047Z,58.78
2019-03-30T00:23:06.476Z,58.66
2019-03-30T00:25:36.817Z,59.19
2019-03-30T00:28:07.164Z,59.42
2019-03-30T00:30:37.519Z,60.05
2019-03-30T00:33:07.791Z,59.78
2019-03-30T00:35:38.073Z,59.48
2019-03-30T00:38:08.397Z,59.84
2019-03-30T00:40:39.426Z,60.00
2019-03-30T00:43:10.448Z,59.96
2019-03-30T00:45:41.660Z,60.07
2019-03-30T00:48:13.809Z,59.18
2019-03-30T00:50:45.945Z,59.23
2019-03-30T00:53:16.945Z,59.39
2019-03-30T00:55:57.627Z,59.18
2019-03-30T00:58:28.771Z,58.96
2019-03-30T01:00:59.812Z,58.86
2019-03-30T01:03:30.805Z,58.72
2019-03-30T01:06:01.822Z,58.57
2019-03-30T01:08:32.508Z,59.41
2019-03-30T01:11:03.647Z,59.10
2019-03-30T01:13:34.787Z,58.60
2019-03-30T01:16:05.907Z,59.39
2019-03-30T01:18:36.919Z,59.27
2019-03-30T01:21:20.158Z,58.79
2019-03-30T01:23:51.187Z,58.84
2019-03-30T01:26:22.746Z,59.13
2019-03-30T01:28:53.790Z,59.05
2019-03-30T01:31:24.879Z,58.44
2019-03-30T01:33:57.017Z,58.93
2019-03-30T01:36:28.825Z,59.38
2019-03-30T01:38:59.842Z,59.23
2019-03-30T01:41:30.883Z,59.33
2019-03-30T01:44:01.901Z,59.45
2019-03-30T01:46:32.941Z,60.14
2019-03-30T01:49:03.978Z,60.46
2019-03-30T01:51:35.006Z,58.90
2019-03-30T01:54:06.598Z,59.10
2019-03-30T01:56:37.041Z,58.15
2019-03-30T01:59:07.594Z,58.22
2019-03-30T02:01:48.583Z,58.32
2019-03-30T02:04:19.647Z,58.81
2019-03-30T02:06:50.666Z,58.50
2019-03-30T02:09:21.757Z,58.98
2019-03-30T02:11:52.770Z,59.10
2019-03-30T02:14:24.914Z,59.14
2019-03-30T02:16:56.491Z,58.71
2019-03-30T02:19:27.514Z,59.41
2019-03-30T02:21:58.013Z,58.48
2019-03-30T02:24:28.410Z,58.63
2019-03-30T02:27:00.478Z,58.70
2019-03-30T02:29:30.838Z,57.72
2019-03-30T02:32:01.190Z,57.62
2019-03-30T02:34:31.563Z,57.41
2019-03-30T02:37:01.932Z,57.86
2019-03-30T02:39:32.409Z,58.29
2019-03-30T02:42:02.778Z,58.96
2019-03-30T02:44:34.051Z,58.86
2019-03-30T02:47:04.430Z,59.37
2019-03-30T02:49:35.876Z,59.38
2019-03-30T02:52:06.238Z,60.08
2019-03-30T02:54:36.603Z,59.61
2019-03-30T02:57:07.454Z,59.60
2019-03-30T02:59:37.818Z,59.60
2019-03-30T03:02:08.218Z,59.45
2019-03-30T03:04:38.865Z,59.15
2019-03-30T03:07:09.204Z,59.05
2019-03-30T03:09:39.573Z,58.66
2019-03-30T03:12:09.962Z,59.08
2019-03-30T03:14:41.306Z,58.50
2019-03-30T03:17:11.679Z,58.44
2019-03-30T03:19:42.056Z,57.91
2019-03-30T03:22:12.425Z,58.15
2019-03-30T03:24:42.785Z,57.69
2019-03-30T03:27:13.156Z,58.04
2019-03-30T03:29:44.303Z,58.41
2019-03-30T03:32:14.763Z,58.01
2019-03-30T03:34:45.268Z,58.06
2019-03-30T03:37:15.710Z,58.10
2019-03-30T03:39:46.117Z,57.77
2019-03-30T03:42:16.571Z,57.73
2019-03-30T03:44:46.927Z,57.65
2019-03-30T03:47:17.307Z,58.06
2019-03-30T03:49:47.691Z,58.83
2019-03-30T03:52:18.039Z,57.74
2019-03-30T03:54:48.430Z,57.83
2019-03-30T03:57:18.813Z,57.85
2019-03-30T03:59:49.730Z,57.80
2019-03-30T04:02:20.081Z,58.37
2019-03-30T04:04:50.448Z,58.15
2019-03-30T04:07:20.820Z,58.10
2019-03-30T04:09:51.329Z,57.82
2019-03-30T04:12:22.349Z,57.62
2019-03-30T04:14:52.696Z,57.67
2019-03-30T04:17:23.069Z,57.75
2019-03-30T04:19:53.520Z,57.67
2019-03-30T04:22:23.896Z,58.40
2019-03-30T04:24:54.263Z,58.06
2019-03-30T04:27:24.627Z,57.79
2019-03-30T04:29:54.996Z,58.22
2019-03-30T04:32:25.384Z,57.69
2019-03-30T04:34:55.731Z,57.93
2019-03-30T04:37:26.097Z,58.38
2019-03-30T04:39:56.468Z,57.39
2019-03-30T04:42:26.842Z,57.72
2019-03-30T04:44:57.200Z,57.33
2019-03-30T04:47:27.572Z,57.63
2019-03-30T04:49:57.949Z,57.48
2019-03-30T04:52:28.305Z,57.99
2019-03-30T04:54:58.741Z,57.50
2019-03-30T04:57:29.258Z,57.16
2019-03-30T05:00:00.830Z,56.84
2019-03-30T05:02:31.314Z,56.76
2019-03-30T05:05:01.667Z,56.98
2019-03-30T05:07:32.033Z,57.22
2019-03-30T05:10:02.457Z,57.63
2019-03-30T05:12:32.885Z,57.51
2019-03-30T05:15:03.533Z,57.02
2019-03-30T05:17:46.897Z,56.88
2019-03-30T05:20:06.827Z,56.67
2019-03-30T05:22:37.177Z,56.63
2019-03-30T05:25:07.591Z,55.49
2019-03-30T05:27:38.138Z,55.78
2019-03-30T05:30:08.720Z,55.65
2019-03-30T05:32:41.668Z,55.73
2019-03-30T05:35:11.462Z,55.79
2019-03-30T05:37:41.836Z,55.53
2019-03-30T05:40:12.318Z,55.43
2019-03-30T05:42:42.694Z,55.54
2019-03-30T05:45:13.134Z,55.44
2019-03-30T05:47:43.503Z,55.58
2019-03-30T05:52:45.132Z,55.50
2019-03-30T05:55:15.501Z,55.16
2019-03-30T05:57:45.863Z,55.04
2019-03-30T06:00:18.186Z,55.02
2019-03-30T06:02:48.746Z,54.99
2019-03-30T06:05:19.091Z,54.98
2019-03-30T06:07:49.748Z,54.71
2019-03-30T06:10:20.121Z,55.00
2019-03-30T06:12:50.804Z,54.60
2019-03-30T06:15:21.981Z,54.34
2019-03-30T06:17:52.364Z,54.67
2019-03-30T06:20:22.724Z,54.93
2019-03-30T06:22:53.143Z,54.97
2019-03-30T06:25:23.541Z,54.63
2019-03-30T06:27:53.931Z,54.40
2019-03-30T06:30:27.583Z,53.78
2019-03-30T06:32:57.943Z,53.31
2019-03-30T06:35:28.741Z,51.05
2019-03-30T06:37:59.387Z,48.24
2019-03-30T06:40:29.763Z,48.04
2019-03-30T06:43:00.152Z,47.50
2019-03-30T06:45:30.525Z,46.34
2019-03-30T06:48:00.885Z,47.39
2019-03-30T06:50:31.277Z,47.01
2019-03-30T06:53:01.731Z,48.71
2019-03-30T06:55:32.115Z,46.24
2019-03-30T06:58:02.493Z,42.15
2019-03-30T07:00:34.012Z,42.06
2019-03-30T07:03:05.123Z,42.87
2019-03-30T07:05:39.707Z,42.16
2019-03-30T07:08:12.096Z,40.14
2019-03-30T07:10:44.295Z,39.16
2019-03-30T07:13:15.136Z,37.23
2019-03-30T07:15:49.252Z,36.77
2019-03-30T07:18:20.160Z,35.39
2019-03-30T07:20:50.557Z,34.60
2019-03-30T07:23:20.943Z,35.28
2019-03-30T07:25:51.411Z,31.79
2019-03-30T07:28:21.990Z,32.59
2019-03-30T07:30:53.474Z,33.23
2019-03-30T07:33:23.843Z,33.70
2019-03-30T07:35:54.214Z,34.39
2019-03-30T07:38:24.596Z,35.09
2019-03-30T07:40:54.964Z,34.68
2019-03-30T07:43:25.336Z,35.69
2019-03-30T07:45:55.691Z,35.03
2019-03-30T07:48:26.333Z,34.03
2019-03-30T07:50:56.812Z,35.75
2019-03-30T07:53:27.408Z,34.70
2019-03-30T07:56:08.269Z,34.03
2019-03-30T07:58:31.090Z,34.94
2019-03-30T08:01:02.312Z,34.37
2019-03-30T08:03:32.742Z,34.34
2019-03-30T08:06:03.762Z,34.52
2019-03-30T08:08:34.142Z,34.28
2019-03-30T08:11:04.531Z,34.37
2019-03-30T08:13:35.056Z,34.59
2019-03-30T08:16:05.446Z,34.44
2019-03-30T08:18:35.827Z,34.79
2019-03-30T08:21:06.196Z,34.34
2019-03-30T08:23:40.551Z,34.26
2019-03-30T08:26:08.670Z,34.21
2019-03-30T08:28:39.063Z,34.42
2019-03-30T08:31:09.443Z,34.63
2019-03-30T08:33:39.824Z,35.10
2019-03-30T08:36:10.299Z,34.89
2019-03-30T08:38:40.712Z,34.99
2019-03-30T08:41:11.129Z,34.98
2019-03-30T08:43:41.527Z,34.83
2019-03-30T08:46:13.507Z,34.47
2019-03-30T08:48:43.923Z,36.09
2019-03-30T08:51:14.411Z,35.81
2019-03-30T08:53:54.450Z,35.53
2019-03-30T08:56:17.073Z,35.84
2019-03-30T08:58:47.469Z,35.65
2019-03-30T09:01:17.847Z,35.15
2019-03-30T09:03:49.288Z,34.73
2019-03-30T09:06:21.276Z,35.02
2019-03-30T09:08:51.815Z,34.84
2019-03-30T09:11:22.249Z,34.68
2019-03-30T09:13:52.647Z,35.63
2019-03-30T09:16:23.218Z,34.97
2019-03-30T09:18:55.051Z,35.40
2019-03-30T09:21:25.480Z,34.77
2019-03-30T09:24:09.406Z,34.10
2019-03-30T09:26:32.084Z,34.07
2019-03-30T09:29:02.499Z,34.26
2019-03-30T09:31:32.887Z,34.60
2019-03-30T09:34:03.265Z,34.40
2019-03-30T09:36:33.756Z,34.10
2019-03-30T09:39:06.458Z,34.06
2019-03-30T09:41:37.034Z,34.37
2019-03-30T09:44:07.424Z,35.65
2019-03-30T09:46:37.971Z,34.10
2019-03-30T09:49:08.548Z,34.35
2019-03-30T09:51:39.052Z,34.15
2019-03-30T09:54:22.778Z,34.23
2019-03-30T09:56:41.909Z,34.38
2019-03-30T09:59:12.380Z,34.41
2019-03-30T10:01:42.762Z,34.06
2019-03-30T10:04:13.132Z,35.07
2019-03-30T10:06:43.494Z,34.75
2019-03-30T10:09:13.872Z,34.60
2019-03-30T10:11:44.336Z,34.10
2019-03-30T10:14:14.993Z,33.95
2019-03-30T10:16:48.664Z,34.32
2019-03-30T10:19:17.687Z,34.89
2019-03-30T10:21:48.188Z,34.36
2019-03-30T10:24:18.593Z,34.43
2019-03-30T10:26:49.053Z,34.73
2019-03-30T10:29:19.792Z,35.80
2019-03-30T10:31:50.164Z,35.53
2019-03-30T10:34:20.530Z,35.69
2019-03-30T10:36:51.132Z,35.87
2019-03-30T10:39:22.868Z,37.05
2019-03-30T10:41:53.552Z,38.38
2019-03-30T10:44:23.915Z,37.17
2019-03-30T10:46:54.297Z,37.33
2019-03-30T10:49:24.666Z,40.01
2019-03-30T10:51:57.324Z,39.34
2019-03-30T10:54:29.791Z,38.24
2019-03-30T10:57:00.166Z,39.78
2019-03-30T10:59:30.575Z,39.07
2019-03-30T11:02:00.971Z,38.60
2019-03-30T11:04:31.351Z,39.16
2019-03-30T11:07:01.735Z,38.64
2019-03-30T11:09:32.111Z,38.43
2019-03-30T11:12:02.475Z,39.23
2019-03-30T11:14:32.848Z,38.79
2019-03-30T11:17:03.248Z,39.73
2019-03-30T11:19:33.647Z,39.88
2019-03-30T11:22:04.026Z,38.61
2019-03-30T11:24:36.063Z,38.90
2019-03-30T11:27:06.447Z,39.02
2019-03-30T11:29:36.821Z,39.45
2019-03-30T11:32:07.165Z,38.11
2019-03-30T11:34:37.571Z,38.79
2019-03-30T11:37:07.917Z,37.73
2019-03-30T11:39:38.349Z,39.66
2019-03-30T11:42:08.717Z,39.58
2019-03-30T11:44:39.108Z,38.26
2019-03-30T11:47:09.507Z,39.31
2019-03-30T11:49:39.858Z,39.60
2019-03-30T11:52:10.218Z,38.58
2019-03-30T11:54:40.569Z,38.62
2019-03-30T11:57:10.951Z,38.77
2019-03-30T11:59:42.701Z,38.32
2019-03-30T12:02:27.016Z,38.05
2019-03-30T17:57:38.242Z,58.08
2019-03-30T18:00:10.724Z,57.72
2019-03-30T18:02:41.278Z,57.93
2019-03-30T18:05:13.020Z,58.12
2019-03-30T18:07:43.549Z,57.90
2019-03-30T18:10:13.936Z,57.30
2019-03-30T18:12:44.343Z,57.96
2019-03-30T18:15:14.863Z,57.46
2019-03-30T18:17:45.467Z,57.29
2019-03-30T18:20:16.740Z,57.06
2019-03-30T18:22:47.364Z,57.65
2019-03-30T18:25:17.816Z,57.39
2019-03-30T18:27:48.283Z,57.28
2019-03-30T18:30:33.887Z,57.20
2019-03-30T18:33:04.515Z,57.31
2019-03-30T18:35:37.325Z,57.26
2019-03-30T18:38:07.698Z,57.16
2019-03-30T18:40:38.455Z,57.14
2019-03-30T18:43:09.195Z,57.34
2019-03-30T18:45:39.590Z,57.49
2019-03-30T18:48:14.261Z,57.15
2019-03-30T18:50:45.242Z,57.48
2019-03-30T18:53:16.050Z,57.64
2019-03-30T18:55:46.455Z,57.66
2019-03-30T18:58:17.082Z,57.95
2019-03-30T19:00:47.690Z,58.03
2019-03-30T19:03:20.201Z,58.06
2019-03-30T19:05:50.913Z,58.41
2019-03-30T19:08:21.450Z,58.24
2019-03-30T19:10:51.811Z,58.48
2019-03-30T19:13:23.434Z,58.46
2019-03-30T19:15:53.849Z,58.56
2019-03-30T19:18:25.222Z,58.26
2019-03-30T19:20:55.632Z,58.48
2019-03-30T19:23:26.149Z,58.46
2019-03-30T19:25:56.560Z,58.38
2019-03-30T19:28:27.306Z,58.47
2019-03-30T19:30:58.787Z,58.42
2019-03-30T19:33:29.532Z,58.11
2019-03-30T19:35:59.919Z,58.34
2019-03-30T19:38:30.563Z,58.33
2019-03-30T19:41:01.025Z,58.34
2019-03-30T19:43:31.408Z,58.42
2019-03-30T19:46:01.790Z,58.73
2019-03-30T19:48:32.379Z,58.70
2019-03-30T19:51:02.952Z,58.76
2019-03-30T19:53:34.838Z,58.96
2019-03-30T19:56:05.713Z,59.34
2019-03-30T19:58:36.449Z,59.55
2019-03-30T20:01:08.494Z,60.01
2019-03-30T20:03:38.991Z,59.64
2019-03-30T20:06:09.439Z,59.21
2019-03-30T20:08:39.840Z,58.88
2019-03-30T20:11:11.701Z,59.30
2019-03-30T20:13:42.104Z,60.51
2019-03-30T20:16:12.729Z,60.18
2019-03-30T20:18:43.144Z,59.68
2019-03-30T20:21:14.535Z,59.29
2019-03-30T20:23:44.956Z,59.47
2019-03-30T20:26:16.423Z,59.54
2019-03-30T20:28:46.785Z,59.33
2019-03-30T20:31:18.829Z,59.58
2019-03-30T20:33:49.317Z,59.42
2019-03-30T20:36:19.783Z,59.07
2019-03-30T20:38:51.324Z,59.49
2019-03-30T20:41:23.867Z,59.83
2019-03-30T20:43:54.267Z,59.39
2019-03-30T20:46:24.720Z,60.02
2019-03-30T20:48:55.091Z,59.94
2019-03-30T20:51:25.829Z,59.79
2019-03-30T20:53:56.317Z,59.73
2019-03-30T20:56:26.734Z,59.74
2019-03-30T20:58:57.240Z,59.55
2019-03-30T21:01:27.654Z,60.26
2019-03-30T21:03:58.068Z,59.97
2019-03-30T21:06:28.544Z,60.12
2019-03-30T21:08:59.033Z,59.42
2019-03-30T21:11:29.510Z,59.34
2019-03-30T21:14:00.704Z,59.03
2019-03-30T21:16:31.386Z,58.59
2019-03-30T21:19:01.789Z,58.68
2019-03-30T21:21:32.162Z,58.81
2019-03-30T21:24:03.626Z,58.94
2019-03-30T21:26:34.376Z,58.73
2019-03-30T21:29:04.952Z,58.67
2019-03-30T21:31:35.400Z,58.89
2019-03-30T21:34:06.855Z,58.82
2019-03-30T21:36:37.323Z,58.82
2019-03-30T21:39:09.010Z,58.83
2019-03-30T21:41:39.726Z,58.84
2019-03-30T21:44:21.329Z,59.52
2019-03-30T21:46:42.757Z,59.48
2019-03-30T21:49:13.147Z,59.32
2019-03-30T21:51:43.601Z,59.17
2019-03-30T21:54:13.999Z,58.76
2019-03-30T21:56:44.401Z,58.15
2019-03-30T21:59:14.794Z,58.66
2019-03-30T22:01:45.177Z,58.66
2019-03-30T22:04:15.571Z,58.97
2019-03-30T22:06:45.984Z,58.90
2019-03-30T22:09:16.372Z,58.91
2019-03-30T22:11:46.732Z,58.50
2019-03-30T22:14:17.130Z,58.61
2019-03-30T22:16:47.514Z,58.74
2019-03-30T22:19:17.883Z,59.02
2019-03-30T22:21:48.260Z,58.83
2019-03-30T22:24:18.636Z,59.97
2019-03-30T22:26:49.742Z,59.64
2019-03-30T22:29:20.154Z,59.38
2019-03-30T22:31:50.545Z,59.84
2019-03-30T22:34:20.946Z,59.68
2019-03-30T22:36:51.323Z,59.30
2019-03-30T22:39:22.105Z,58.42
2019-03-30T22:41:52.484Z,58.26
2019-03-30T22:44:22.935Z,58.50
2019-03-30T22:46:52.311Z,58.54
2019-03-30T22:49:22.684Z,59.09
2019-03-30T22:51:53.151Z,58.81
2019-03-30T22:54:23.539Z,59.26
2019-03-30T22:56:53.949Z,59.20
2019-03-30T22:59:24.295Z,59.17
2019-03-30T23:01:54.723Z,58.96
2019-03-30T23:04:25.100Z,58.74
2019-03-30T23:06:55.493Z,58.98
2019-03-30T23:09:25.870Z,58.54
2019-03-30T23:11:56.252Z,58.46
2019-03-30T23:14:26.647Z,58.69
2019-03-30T23:16:57.008Z,58.78
2019-03-30T23:19:27.356Z,58.33
2019-03-30T23:21:57.796Z,57.99
2019-03-30T23:24:28.150Z,58.48
2019-03-30T23:26:58.522Z,58.74
2019-03-30T23:29:29.233Z,59.10
2019-03-30T23:31:59.603Z,59.09
2019-03-30T23:34:30.495Z,58.88
2019-03-30T23:37:00.857Z,59.36
2019-03-30T23:39:31.220Z,59.17
2019-03-30T23:42:02.528Z,58.89
2019-03-30T23:44:32.906Z,59.41
2019-03-30T23:47:03.265Z,59.24
2019-03-30T23:49:33.645Z,58.92
2019-03-30T23:52:04.310Z,58.37
2019-03-30T23:54:34.699Z,58.59
2019-03-30T23:57:05.053Z,58.67
2019-03-30T23:59:35.433Z,59.15
